• Join FlightAware (Why Join?)
  • Login
  • US Flag 
02:28AM EDT


 

Airport Tracker/Info


-or-


 

Live Flight TrackerFlight Track Log ✈ THY322 ✈ 15-May-2013 ✈ LTBA / IST - UTAA / ASB

Flight Track Log - Related Links

Times and Time Zones

All times are in EDT time to prevent confusion due to time zone crossing. See the THY322 flight status page for this flight to view local times or setup timezone preferences in your user account.

Time Position Orientation Groundspeed Altitude Reporting Facility
EDT Latitude Longitude Course Direction KTS MPH feet Rate Location/Type
03:14PM 41.0890 28.8750 88° East 259 298 3,700  Level FlightAware
03:14PM 41.0930 28.9050 80° East 264 304 4,400 2,220 Climbing FlightAware
03:15PM 40.9899 29.3020 88° East  Level Estimated
03:16PM 41.1320 29.0010 62° Northeast 276 318 6,900  Level FlightAware
03:16PM 41.1460 29.0310 58° Northeast 288 331 7,500 2,040 Climbing FlightAware
03:16PM 41.1710 29.0850 58° Northeast 291 335 8,800 1,980 Climbing FlightAware
03:17PM 41.1920 29.1280 57° Northeast 301 346 9,700 1,680 Climbing FlightAware
03:18PM 41.2240 29.1950 58° Northeast 317 365 10,800 1,320 Climbing FlightAware
03:18PM 41.2570 29.2660 58° Northeast 348 400 11,500 1,200 Climbing FlightAware
03:19PM 41.2990 29.3550 58° Northeast 374 430 12,500 1,680 Climbing FlightAware
03:20PM 41.3360 29.4350 58° Northeast 379 436 13,900 1,860 Climbing FlightAware
03:20PM 41.3790 29.5270 58° Northeast 392 451 15,200 1,620 Climbing FlightAware
03:21PM 41.4170 29.6080 58° Northeast 401 461 16,200 1,560 Climbing FlightAware
03:22PM 41.4560 29.6920 58° Northeast 407 468 17,300 1,500 Climbing FlightAware
03:23PM 41.4820 29.8010 72° East 417 480 18,400 1,440 Climbing FlightAware
03:23PM 41.5020 29.9030 75° East 421 484 19,400 1,500 Climbing FlightAware
03:24PM 41.5220 30.0060 75° East 423 487 20,400 1,380 Climbing FlightAware
03:25PM 41.5440 30.1180 75° East 428 493 21,400 1,260 Climbing FlightAware
03:25PM 41.5640 30.2240 76° East 432 497 22,200 1,020 Climbing FlightAware
03:26PM 41.5870 30.3410 75° East 441 507 22,900 1,020 Climbing FlightAware
03:27PM 41.6070 30.4450 76° East 444 511 23,700 1,020 Climbing FlightAware
03:27PM 41.6260 30.5500 76° East 449 517 24,300 1,020 Climbing FlightAware
03:28PM 41.6470 30.6610 76° East 450 518 25,100 1,020 Climbing FlightAware
03:29PM 41.6670 30.7680 76° East 454 522 25,700 900 Climbing FlightAware
03:30PM 41.6930 30.9080 76° East 457 526 26,500 840 Climbing FlightAware
03:30PM 41.7130 31.0160 76° East 462 532 27,000 720 Climbing FlightAware
03:31PM 41.7360 31.1410 76° East 463 533 27,600 540 Climbing FlightAware
03:32PM 41.7630 31.2860 76° East 464 534 27,900 660 Climbing FlightAware
03:33PM 41.7910 31.4470 77° East 467 537 28,900 960 Climbing FlightAware
03:33PM 41.8130 31.5670 76° East 467 537 29,500 960 Climbing FlightAware
03:34PM 41.8340 31.6840 76° East 460 529 30,300 900 Climbing FlightAware
03:35PM 41.8550 31.8040 77° East 461 531 30,800 600 Climbing FlightAware
03:36PM 41.8820 31.9570 77° East 459 528 31,300 300 Climbing FlightAware
03:37PM 41.9010 32.0700 77° East 459 528 31,300 480 Level FlightAware
03:37PM 41.9200 32.1750 76° East 461 531 32,000 840 Climbing FlightAware
03:38PM 41.9360 32.2720 77° East 455 524 32,300 480 Climbing FlightAware
03:38PM 41.9550 32.3860 77° East 452 520 32,600 480 Climbing FlightAware
03:39PM 41.9760 32.5090 77° East 451 519 33,000 300 Climbing FlightAware
03:40PM 41.9910 32.5960 77° East 452 520 33,000  Level FlightAware
03:40PM 42.0140 32.7300 77° East 449 517 33,000  Level FlightAware
03:41PM 42.0300 32.8300 78° East 452 520 33,000  Level FlightAware
03:42PM 42.0520 32.9610 77° East 455 524 33,000  Level FlightAware
03:43PM 42.0690 33.0680 78° East 456 525 33,000 60 Level FlightAware
03:43PM 42.0910 33.1990 77° East 457 526 33,100  Climbing FlightAware
03:44PM 42.1090 33.3080 77° East 456 525 33,000 -120 Descending FlightAware
03:45PM 42.1280 33.4300 78° East 456 525 33,000  Level FlightAware
03:45PM 42.1460 33.5430 78° East 454 522 33,000  Level FlightAware
03:46PM 42.1660 33.6650 77° East 455 524 33,000  Level FlightAware
03:47PM 42.1740 33.7260 80° East 455 524 33,000  Level FlightAware
03:47PM 42.1790 33.8270 86° East 456 525 33,000  Level FlightAware
03:48PM 42.1680 33.9760 96° East 455 524 33,000  Level FlightAware
03:49PM 42.1530 34.0970 99° East 456 525 33,000  Level FlightAware
03:49PM 42.1390 34.2130 99° East 456 525 33,000  Level FlightAware
03:51PM 42.1270 34.3080 100° East 456 525 33,000  Level FlightAware
03:51PM 42.1160 34.4040 99° East 456 525 33,000  Level FlightAware
03:52PM 42.1020 34.5230 99° East 456 525 33,000  Level FlightAware
03:53PM 42.0910 34.6190 99° East 456 525 33,000  Level FlightAware
03:54PM 42.0800 34.7140 99° East 456 525 33,000  Level FlightAware
03:54PM 42.0680 34.8090 100° East 456 525 33,000  Level FlightAware
03:55PM 42.0570 34.9050 99° East 456 525 33,000  Level FlightAware
03:56PM 42.0430 35.0240 99° East 456 525 33,000  Level FlightAware
03:56PM 42.0320 35.1200 99° East 456 525 33,000  Level FlightAware
03:57PM 42.0210 35.2150 99° East 456 525 33,000  Level FlightAware
03:58PM 42.0100 35.3100 99° East 456 525 33,000  Level FlightAware
03:58PM 41.9980 35.4060 100° East 456 525 33,000  Level FlightAware
03:59PM 41.9840 35.5250 99° East 456 525 33,000  Level FlightAware
04:02PM 41.9579 35.8952 95° East  Level Estimated
04:03PM 41.9460 36.0573 96° East  Level Estimated
04:04PM 41.9340 36.2192 96° East  Level Estimated
04:05PM 41.9217 36.3812 96° East  Level Estimated
04:06PM 41.9092 36.5430 96° East  Level Estimated
04:07PM 41.8965 36.7048 96° East  Level Estimated
04:08PM 41.8835 36.8666 96° East  Level Estimated
04:09PM 41.8703 37.0282 96° East  Level Estimated
04:10PM 41.8569 37.1898 96° East  Level Estimated
04:10PM 41.8980 37.4470 96° East 418 481 33,000  Level FlightAware
04:10PM 41.8950 37.5760 92° East 419 482 33,000  Level FlightAware
04:11PM 41.8940 37.6740 91° East 420 483 33,000  Level FlightAware
04:12PM 41.8920 37.7940 91° East 420 483 33,000  Level FlightAware
04:12PM 41.8890 37.8980 92° East 33,000  Level FlightAware
04:13PM 41.8870 38.0040 91° East 417 480 33,000  Level FlightAware
04:14PM 41.8850 38.0820 92° East 416 479 33,000  Level FlightAware
04:15PM 41.8820 38.2250 92° East 413 475 33,000  Level FlightAware
04:16PM 41.8780 38.3900 92° East 412 474 33,000  Level FlightAware
04:17PM 41.8740 38.5380 92° East 412 474 33,000  Level FlightAware
04:17PM 41.8710 38.6450 92° East 413 475 33,000  Level FlightAware
04:18PM 41.8680 38.7810 92° East 414 476 33,000  Level FlightAware
04:19PM 41.8630 38.9390 92° East 412 474 33,100  Climbing FlightAware
04:20PM 41.8600 39.0440 92° East 412 474 33,100 -120 Level FlightAware
04:20PM 41.8570 39.1260 93° East 406 467 33,000 -120 Descending FlightAware
04:21PM 41.8530 39.2630 92° East 403 464 33,000  Level FlightAware
04:22PM 41.8480 39.4030 93° East 401 461 33,000  Level FlightAware
04:23PM 41.8450 39.5030 92° East 401 461 33,000  Level FlightAware
04:24PM 41.8410 39.6140 93° East 403 464 33,000  Level FlightAware
04:25PM 41.8350 39.7800 93° East 407 468 33,000  Level FlightAware
04:26PM 41.8310 39.8930 93° East 408 470 33,000  Level FlightAware
04:26PM 41.8250 40.0350 93° East 411 473 33,000  Level FlightAware
04:27PM 41.8200 40.1570 93° East 412 474 33,000  Level FlightAware
04:28PM 41.8160 40.2640 93° East 412 474 33,000  Level FlightAware
04:29PM 41.8120 40.3610 93° East 415 478 33,000  Level FlightAware
04:30PM 41.8050 40.5150 93° East 417 480 33,000  Level FlightAware
04:30PM 41.8000 40.6370 93° East 418 481 33,000  Level FlightAware
04:31PM 41.7960 40.7380 93° East 420 483 33,000  Level FlightAware
04:32PM 41.7920 40.8270 93° East 420 483 33,000  Level FlightAware
04:32PM 41.7890 40.9150 93° East 420 483 33,000  Level FlightAware
04:33PM 41.7850 41.0040 93° East 420 483 33,000  Level FlightAware
04:34PM 41.7810 41.1140 93° East 420 483 33,000  Level FlightAware
04:35PM 41.7770 41.2030 93° East 420 483 33,000  Level FlightAware
04:35PM 41.7740 41.2910 93° East 420 483 33,000  Level FlightAware
04:36PM 41.7710 41.3570 93° East 420 483 33,000  Level FlightAware
04:36PM 41.7680 41.4460 93° East 420 483 33,000  Level FlightAware
04:37PM 41.7640 41.5570 93° East 420 483 33,000  Level FlightAware
04:38PM 41.7610 41.6230 93° East 420 483 33,000  Level FlightAware
04:39PM 41.7570 41.7330 93° East 420 483 33,000  Level FlightAware
04:39PM 41.7530 41.8220 93° East 420 483 33,000  Level FlightAware
04:40PM 41.7490 41.9320 93° East 420 483 33,000  Level FlightAware
04:41PM 41.7460 41.9990 93° East 420 483 33,000  Level FlightAware
04:43PM 41.7014 42.2959 101° East  Level Estimated
04:44PM 41.6772 42.4548 101° East  Level Estimated
04:45PM 41.6527 42.6135 102° East  Level Estimated
04:46PM 41.6281 42.7722 102° East  Level Estimated
04:47PM 41.6032 42.9307 102° East  Level Estimated
04:48PM 41.5781 43.0891 102° East  Level Estimated
04:49PM 41.5528 43.2474 102° East  Level Estimated
04:50PM 41.5273 43.4055 102° East  Level Estimated
04:51PM 41.5015 43.5635 102° East  Level Estimated
04:52PM 41.4756 43.7214 102° East  Level Estimated
04:53PM 41.4494 43.8792 102° East  Level Estimated
04:54PM 41.4230 44.0368 103° East  Level Estimated
04:54PM 41.5590 44.2810 103° East 417 480 33,000  Level FlightAware
04:55PM 41.5360 44.3750 108° East 416 479 33,000  Level FlightAware
04:56PM 41.5060 44.4990 108° East 417 480 33,000  Level FlightAware
04:56PM 41.4810 44.5970 109° East 420 483 33,000  Level FlightAware
04:58PM 41.4360 44.7800 108° East 421 484 33,000  Level FlightAware
04:58PM 41.4150 44.8640 108° East 421 484 33,000  Level FlightAware
04:59PM 41.3920 44.9510 109° East 425 489 33,000  Level FlightAware
05:00PM 41.3720 45.0360 107° East 425 489 33,000  Level FlightAware
05:01PM 41.3460 45.1420 108° East 425 489 33,000  Level FlightAware
05:01PM 41.3250 45.2260 108° East 425 489 33,000  Level FlightAware
05:02PM 41.3050 45.3110 107° East 425 489 33,000  Level FlightAware
05:03PM 41.2840 45.3960 108° East 425 489 33,000  Level FlightAware
05:03PM 41.2630 45.4800 108° East 425 489 33,000  Level FlightAware
05:04PM 41.2370 45.5860 108° East 425 489 33,000  Level FlightAware
05:05PM 41.2170 45.6700 108° East 425 489 33,000  Level FlightAware
05:06PM 41.1960 45.7550 108° East 425 489 33,000  Level FlightAware
05:06PM 41.1750 45.8390 108° East 425 489 33,000  Level FlightAware
05:07PM 41.1550 45.9240 107° East 425 489 33,000  Level FlightAware
05:08PM 41.1290 46.0290 108° East 425 489 33,000  Level FlightAware
05:08PM 41.1080 46.1140 108° East 425 489 33,000  Level FlightAware
05:11PM 41.0467 46.4304 104° East  Level Estimated
05:12PM 41.0162 46.5857 105° East  Level Estimated
05:13PM 40.9856 46.7409 105° East  Level Estimated
05:14PM 40.9547 46.8960 105° East  Level Estimated
05:15PM 40.9236 47.0509 105° East  Level Estimated
05:16PM 40.8923 47.2057 105° East  Level Estimated
05:17PM 40.8608 47.3604 105° East  Level Estimated
05:18PM 40.8291 47.5148 105° East  Level Estimated
05:19PM 40.7972 47.6692 105° East  Level Estimated
05:20PM 40.7650 47.8234 105° East  Level Estimated
05:21PM 40.7327 47.9774 105° East  Level Estimated
05:22PM 40.7002 48.1313 106° East  Level Estimated
05:23PM 40.6674 48.2850 106° East  Level Estimated
05:24PM 40.6345 48.4386 106° East  Level Estimated
05:25PM 40.6014 48.5921 106° East  Level Estimated
05:26PM 40.5680 48.7453 106° East  Level Estimated
05:27PM 40.5345 48.8985 106° East  Level Estimated
05:28PM 40.5007 49.0515 106° East  Level Estimated
05:29PM 40.4668 49.2043 106° East  Level Estimated
05:30PM 40.4326 49.3569 106° East  Level Estimated
05:31PM 40.3983 49.5095 106° East  Level Estimated
05:32PM 40.3637 49.6618 107° East  Level Estimated
05:33PM 40.3290 49.8140 107° East  Level Estimated
05:34PM 40.2940 49.9661 107° East  Level Estimated
05:35PM 40.2589 50.1180 107° East  Level Estimated
05:36PM 40.2235 50.2697 107° East  Level Estimated
05:37PM 40.1880 50.4212 107° East  Level Estimated
05:38PM 40.1522 50.5727 107° East  Level Estimated
05:39PM 40.1163 50.7239 107° East  Level Estimated
05:40PM 40.0802 50.8750 107° East  Level Estimated
05:41PM 40.0438 51.0259 107° East  Level Estimated
05:42PM 40.0073 51.1767 108° East  Level Estimated
05:43PM 39.9706 51.3273 108° East  Level Estimated
05:44PM 39.9337 51.4777 108° East  Level Estimated
05:45PM 39.8965 51.6280 108° East  Level Estimated
05:46PM 39.8592 51.7781 108° East  Level Estimated
05:47PM 39.8217 51.9281 108° East  Level Estimated
05:48PM 39.7840 52.0779 108° East  Level Estimated
05:49PM 39.7462 52.2275 108° East  Level Estimated
05:50PM 39.7081 52.3770 108° East  Level Estimated
05:51PM 39.6698 52.5263 108° East  Level Estimated
05:52PM 39.6314 52.6754 108° East  Level Estimated
05:53PM 39.5927 52.8244 109° East  Level Estimated
05:54PM 39.5539 52.9732 109° East  Level Estimated
05:55PM 39.5148 53.1218 109° East  Level Estimated
05:56PM 39.4756 53.2703 109° East  Level Estimated
05:57PM 39.4362 53.4186 109° East  Level Estimated
05:58PM 39.3966 53.5667 109° East  Level Estimated
05:59PM 39.3568 53.7146 109° East  Level Estimated
06:00PM 39.3168 53.8624 109° East  Level Estimated
06:01PM 39.2767 54.0101 109° East  Level Estimated
06:02PM 39.2364 54.1575 109° East  Level Estimated
06:03PM 39.1958 54.3048 110° East  Level Estimated
06:04PM 39.1551 54.4519 110° East  Level Estimated
06:05PM 39.1142 54.5988 110° East  Level Estimated
06:06PM 39.0731 54.7456 110° East  Level Estimated
06:07PM 39.0319 54.8922 110° East  Level Estimated
06:08PM 38.9904 55.0386 110° East  Level Estimated
06:09PM 38.9488 55.1849 110° East  Level Estimated
06:10PM 38.9070 55.3310 110° East  Level Estimated
06:11PM 38.8650 55.4769 110° East  Level Estimated
06:12PM 38.8228 55.6226 110° East  Level Estimated
06:13PM 38.7804 55.7682 110° East  Level Estimated
06:14PM 38.7379 55.9136 111° Southeast  Level Estimated
06:15PM 38.6952 56.0588 111° Southeast  Level Estimated
06:16PM 38.6523 56.2039 111° Southeast  Level Estimated
06:17PM 38.6092 56.3487 111° Southeast  Level Estimated
06:18PM 38.5659 56.4934 111° Southeast  Level Estimated
06:19PM 38.5225 56.6380 111° Southeast  Level Estimated
06:20PM 38.4789 56.7823 111° Southeast  Level Estimated
06:21PM 38.4351 56.9265 111° Southeast  Level Estimated
06:22PM 38.3911 57.0705 111° Southeast  Level Estimated
06:23PM 38.3470 57.2143 111° Southeast  Level Estimated
06:24PM 38.3027 57.3579 111° Southeast  Level Estimated
06:25PM 38.2582 57.5014 112° Southeast  Level Estimated
06:26PM 38.2135 57.6447 112° Southeast  Level Estimated
06:27PM 38.1687 57.7878 112° Southeast  Level Estimated
06:28PM 38.1237 57.9308 112° Southeast  Level Estimated
06:29PM 38.0785 58.0735 112° Southeast  Level Estimated
06:30PM 38.0331 58.2161 112° Southeast  Level Estimated
06:31PM 37.9876 58.3585 112° Southeast  Level Estimated
06:32PM 37.9868 58.3610 112° Southeast  Level Estimated
06:33PM 37.9868 58.3610 329° Northwest  Level Estimated
06:34PM 37.9868 58.3610 329° Northwest  Level Estimated
06:35PM 37.9868 58.3610 329° Northwest  Level Estimated
06:36PM 37.9868 58.3610 329° Northwest  Level Estimated
06:37PM 37.9868 58.3610 329° Northwest  Level Estimated